
Distance (Route):
Temperature : -29.3°C
Humidity : 33.6%
Pressure : 0hPa| Receiver | Frames | First received | Last received |
|---|---|---|---|
| LZ4TU-5 | 85 | 2026-08-30 11:37:08 | 2026-08-30 12:51:38 |
| Receiver | Date | Latitude | Longitude | Direction | Speed | Altitude | Climb | Temperature | Humidity | Pressure | Voltage | Killtimer | Uptime | BKT | XDATA |
|---|---|---|---|---|---|---|---|---|---|---|---|---|---|---|---|
| LZ4TU-5 | 2026-08-30 12:51:38 | 43.22717 | 20.43510 | 94° | 46km/h | 8819m | -15.5m/s | -29.3°C | 33.6% | 0hPa | 0V | 00:00:00 | 00:00:00 | 00:00:00 | |
| LZ4TU-5 | 2026-08-30 12:51:33 | 43.22721 | 20.43432 | 95° | 46km/h | 8892m | -14.5m/s | -29.9°C | 36.2% | 0hPa | 0V | 00:00:00 | 00:00:00 | 00:00:00 | |
| LZ4TU-5 | 2026-08-30 12:51:30 | 43.22725 | 20.43355 | 96° | 44km/h | 8966m | -14.7m/s | -30.7°C | 38.9% | 0hPa | 0V | 00:00:00 | 00:00:00 | 00:00:00 | |
| LZ4TU-5 | 2026-08-30 12:49:31 | 43.22934 | 20.41554 | 103° | 49km/h | 10712m | -16.5m/s | -45.6°C | 32.8% | 0hPa | 0V | 00:00:00 | 00:00:00 | 00:00:00 | |
| LZ4TU-5 | 2026-08-30 12:49:26 | 43.22949 | 20.41470 | 106° | 49km/h | 10800m | -16.5m/s | -46.1°C | 0% | 0hPa | 0V | 00:00:00 | 00:00:00 | 00:00:00 | |
| LZ4TU-5 | 2026-08-30 12:47:20 | 43.23493 | 20.39226 | 108° | 55km/h | 13076m | -19.4m/s | -58.0°C | 11.7% | 0hPa | 0V | 00:00:00 | 00:00:00 | 00:00:00 | |
| LZ4TU-5 | 2026-08-30 12:47:15 | 43.23512 | 20.39133 | 105° | 57km/h | 13177m | -19.9m/s | -58.3°C | 0% | 0hPa | 0V | 00:00:00 | 00:00:00 | 00:00:00 | |
| LZ4TU-5 | 2026-08-30 12:44:53 | 43.23982 | 20.37015 | 89° | 49km/h | 16315m | -24.8m/s | -58.7°C | 0.0% | 0hPa | 0V | 00:00:00 | 00:00:00 | 00:00:00 | |
| LZ4TU-5 | 2026-08-30 12:44:48 | 43.23986 | 20.36934 | 104° | 42km/h | 16436m | -24.9m/s | -58.2°C | 0.0% | 0hPa | 0V | 00:00:00 | 00:00:00 | 00:00:00 | |
| LZ4TU-5 | 2026-08-30 12:42:48 | 43.23912 | 20.36550 | 327° | 4km/h | 19578m | -28.6m/s | -56.7°C | 0.0% | 0hPa | 0V | 00:00:00 | 00:00:00 | 00:00:00 | |
| LZ4TU-5 | 2026-08-30 12:42:44 | 43.23910 | 20.36553 | 318° | 7km/h | 19695m | -29.1m/s | -57.4°C | 0.0% | 0hPa | 0V | 00:00:00 | 00:00:00 | 00:00:00 | |
| LZ4TU-5 | 2026-08-30 12:42:39 | 43.23905 | 20.36562 | 329° | 13km/h | 19836m | -29.5m/s | -58.0°C | 0.0% | 0hPa | 0V | 00:00:00 | 00:00:00 | 00:00:00 | |
| LZ4TU-5 | 2026-08-30 12:40:16 | 43.23730 | 20.36774 | 307° | 4km/h | 24088m | -31.5m/s | -53.3°C | 0.0% | 0hPa | 0V | 00:00:00 | 00:00:00 | 00:00:00 | |
| LZ4TU-5 | 2026-08-30 12:40:12 | 43.23723 | 20.36780 | 352° | 5km/h | 24214m | -33.0m/s | -52.8°C | 0.0% | 0hPa | 0V | 00:00:00 | 00:00:00 | 00:00:00 | |
| LZ4TU-5 | 2026-08-30 12:40:06 | 43.23715 | 20.36787 | 308° | 7km/h | 24407m | -32.6m/s | -52.2°C | 0.0% | 0hPa | 0V | 00:00:00 | 00:00:00 | 00:00:00 | |
| LZ4TU-5 | 2026-08-30 12:38:04 | 43.23510 | 20.36875 | 6° | 16km/h | 28509m | -40.5m/s | -44.5°C | 1.1% | 0hPa | 0V | 00:00:00 | 00:00:00 | 00:00:00 | |
| LZ4TU-5 | 2026-08-30 12:38:00 | 43.23495 | 20.36873 | 6° | 13km/h | 28666m | -38.4m/s | -43.6°C | 0.9% | 0hPa | 0V | 00:00:00 | 00:00:00 | 00:00:00 | |
| LZ4TU-5 | 2026-08-30 12:35:42 | 43.22558 | 20.36674 | 25° | 18km/h | 30118m | 7.7m/s | -40.5°C | 1.6% | 0hPa | 0V | 00:00:00 | 00:00:00 | 00:00:00 | |
| LZ4TU-5 | 2026-08-30 12:35:37 | 43.22524 | 20.36687 | 334° | 26km/h | 30079m | 6.8m/s | -40.6°C | 1.5% | 0hPa | 0V | 00:00:00 | 00:00:00 | 00:00:00 | |
| LZ4TU-5 | 2026-08-30 12:35:32 | 43.22500 | 20.36675 | 63° | 37km/h | 30048m | 7.1m/s | -40.8°C | 1.5% | 0hPa | 0V | 00:00:00 | 00:00:00 | 00:00:00 | |
| LZ4TU-5 | 2026-08-30 12:33:36 | 43.21961 | 20.36435 | 359° | 16km/h | 29228m | 8.1m/s | -44.6°C | 2.1% | 0hPa | 0V | 00:00:00 | 00:00:00 | 00:00:00 | |
| LZ4TU-5 | 2026-08-30 12:33:30 | 43.21939 | 20.36449 | 66° | 9km/h | 29192m | 6.3m/s | -44.4°C | 2.0% | 0hPa | 0V | 00:00:00 | 00:00:00 | 00:00:00 | |
| LZ4TU-5 | 2026-08-30 12:31:42 | 43.21502 | 20.36499 | 5° | 33km/h | 28451m | 8.3m/s | -45.6°C | 1.8% | 0hPa | 0V | 00:00:00 | 00:00:00 | 00:00:00 | |
| LZ4TU-5 | 2026-08-30 12:31:38 | 43.21481 | 20.36484 | 16° | 20km/h | 28421m | 9.6m/s | -45.6°C | 1.7% | 0hPa | 0V | 00:00:00 | 00:00:00 | 00:00:00 | |
| LZ4TU-5 | 2026-08-30 12:29:49 | 43.21359 | 20.36443 | 27° | 26km/h | 27658m | 9.1m/s | -47.0°C | 1.6% | 0hPa | 0V | 00:00:00 | 00:00:00 | 00:00:00 | |
| LZ4TU-5 | 2026-08-30 12:29:45 | 43.21342 | 20.36424 | 113° | 9km/h | 27630m | 8.4m/s | -47.1°C | 1.6% | 0hPa | 0V | 00:00:00 | 00:00:00 | 00:00:00 | |
| LZ4TU-5 | 2026-08-30 12:27:25 | 43.21147 | 20.36449 | 90° | 13km/h | 26692m | 10.4m/s | -48.3°C | 1.4% | 0hPa | 0V | 00:00:00 | 00:00:00 | 00:00:00 | |
| LZ4TU-5 | 2026-08-30 12:27:20 | 43.21139 | 20.36423 | 311° | 5km/h | 26659m | 4.2m/s | -48.4°C | 1.4% | 0hPa | 0V | 00:00:00 | 00:00:00 | 00:00:00 | |
| LZ4TU-5 | 2026-08-30 12:25:25 | 43.20926 | 20.36351 | 360° | 29km/h | 25898m | 8.0m/s | -49.3°C | 1.3% | 0hPa | 0V | 00:00:00 | 00:00:00 | 00:00:00 | |
| LZ4TU-5 | 2026-08-30 12:25:20 | 43.20911 | 20.36355 | 167° | 7km/h | 25865m | 5.6m/s | -49.1°C | 1.3% | 0hPa | 0V | 00:00:00 | 00:00:00 | 00:00:00 | |
| LZ4TU-5 | 2026-08-30 12:23:10 | 43.20645 | 20.36508 | 19° | 13km/h | 25041m | 5.5m/s | -50.0°C | 0.9% | 0hPa | 0V | 00:00:00 | 00:00:00 | 00:00:00 | |
| LZ4TU-5 | 2026-08-30 12:23:06 | 43.20628 | 20.36513 | 323° | 18km/h | 25016m | 5.4m/s | -50.1°C | 0.9% | 0hPa | 0V | 00:00:00 | 00:00:00 | 00:00:00 | |
| LZ4TU-5 | 2026-08-30 12:21:18 | 43.20338 | 20.36709 | 51° | 20km/h | 24321m | 6.5m/s | -52.4°C | 1.0% | 0hPa | 0V | 00:00:00 | 00:00:00 | 00:00:00 | |
| LZ4TU-5 | 2026-08-30 12:21:13 | 43.20325 | 20.36719 | 292° | 20km/h | 24288m | 6.1m/s | -52.3°C | 0.9% | 0hPa | 0V | 00:00:00 | 00:00:00 | 00:00:00 | |
| LZ4TU-5 | 2026-08-30 12:19:26 | 43.20100 | 20.36678 | 3° | 18km/h | 23595m | 6.1m/s | -52.1°C | 1.2% | 0hPa | 0V | 00:00:00 | 00:00:00 | 00:00:00 | |
| LZ4TU-5 | 2026-08-30 12:19:22 | 43.20077 | 20.36684 | 330° | 27km/h | 23573m | 3.8m/s | -52.2°C | 1.2% | 0hPa | 0V | 00:00:00 | 00:00:00 | 00:00:00 | |
| LZ4TU-5 | 2026-08-30 12:17:31 | 43.20023 | 20.37075 | 227° | 11km/h | 22857m | 6.0m/s | -52.7°C | 1.1% | 0hPa | 0V | 00:00:00 | 00:00:00 | 00:00:00 | |
| LZ4TU-5 | 2026-08-30 12:17:27 | 43.20014 | 20.37095 | 343° | 11km/h | 22823m | 5.7m/s | -52.3°C | 1.0% | 0hPa | 0V | 00:00:00 | 00:00:00 | 00:00:00 | |
| LZ4TU-5 | 2026-08-30 12:15:37 | 43.19814 | 20.37203 | 0° | 0km/h | 22154m | 4.0m/s | -53.4°C | 0.9% | 0hPa | 0V | 00:00:00 | 00:00:00 | 00:00:00 | |
| LZ4TU-5 | 2026-08-30 12:15:32 | 43.19812 | 20.37217 | 334° | 11km/h | 22123m | 5.2m/s | -53.4°C | 0.9% | 0hPa | 0V | 00:00:00 | 00:00:00 | 00:00:00 | |
| LZ4TU-5 | 2026-08-30 12:13:43 | 43.19654 | 20.37729 | 198° | 26km/h | 21448m | 5.7m/s | -53.3°C | 1.0% | 0hPa | 0V | 00:00:00 | 00:00:00 | 00:00:00 | |
| LZ4TU-5 | 2026-08-30 12:13:38 | 43.19667 | 20.37738 | 275° | 4km/h | 21415m | 7.8m/s | -53.2°C | 0.9% | 0hPa | 0V | 00:00:00 | 00:00:00 | 00:00:00 | |
| LZ4TU-5 | 2026-08-30 12:11:53 | 43.19623 | 20.37860 | 127° | 5km/h | 20775m | 6.2m/s | -56.0°C | 1.0% | 0hPa | 0V | 00:00:00 | 00:00:00 | 00:00:00 | |
| LZ4TU-5 | 2026-08-30 12:11:48 | 43.19618 | 20.37845 | 108° | 7km/h | 20744m | 5.2m/s | -56.1°C | 1.0% | 0hPa | 0V | 00:00:00 | 00:00:00 | 00:00:00 | |
| LZ4TU-5 | 2026-08-30 12:10:05 | 43.19484 | 20.37951 | 74° | 7km/h | 20132m | 5.7m/s | -57.8°C | 1.1% | 0hPa | 0V | 00:00:00 | 00:00:00 | 00:00:00 | |
| LZ4TU-5 | 2026-08-30 12:10:00 | 43.19475 | 20.37943 | 59° | 15km/h | 20099m | 7.0m/s | -57.8°C | 1.1% | 0hPa | 0V | 00:00:00 | 00:00:00 | 00:00:00 | |
| LZ4TU-5 | 2026-08-30 12:08:17 | 43.19290 | 20.38027 | 304° | 7km/h | 19487m | 4.8m/s | -56.6°C | 0.9% | 0hPa | 0V | 00:00:00 | 00:00:00 | 00:00:00 | |
| LZ4TU-5 | 2026-08-30 12:08:12 | 43.19287 | 20.38022 | 345° | 4km/h | 19457m | 5.6m/s | -57.1°C | 1.0% | 0hPa | 0V | 00:00:00 | 00:00:00 | 00:00:00 | |
| LZ4TU-5 | 2026-08-30 12:06:30 | 43.18871 | 20.37725 | 73° | 13km/h | 18856m | 5.4m/s | -58.1°C | 1.3% | 0hPa | 0V | 00:00:00 | 00:00:00 | 00:00:00 | |
| LZ4TU-5 | 2026-08-30 12:04:45 | 43.18971 | 20.37771 | 52° | 7km/h | 18215m | 5.7m/s | -57.5°C | 1.9% | 0hPa | 0V | 00:00:00 | 00:00:00 | 00:00:00 | |
| LZ4TU-5 | 2026-08-30 12:04:40 | 43.18968 | 20.37758 | 97° | 5km/h | 18187m | 4.8m/s | -57.7°C | 1.9% | 0hPa | 0V | 00:00:00 | 00:00:00 | 00:00:00 | |
| LZ4TU-5 | 2026-08-30 12:02:50 | 43.18786 | 20.37333 | 19° | 9km/h | 17549m | 5.0m/s | -59.9°C | 2.3% | 0hPa | 0V | 00:00:00 | 00:00:00 | 00:00:00 | |
| LZ4TU-5 | 2026-08-30 12:02:45 | 43.18783 | 20.37341 | 346° | 13km/h | 17520m | 7.0m/s | -59.8°C | 2.3% | 0hPa | 0V | 00:00:00 | 00:00:00 | 00:00:00 | |
| LZ4TU-5 | 2026-08-30 12:01:02 | 43.18836 | 20.37304 | 203° | 15km/h | 16926m | 11.8m/s | -58.3°C | 1.6% | 0hPa | 0V | 00:00:00 | 00:00:00 | 00:00:00 | |
| LZ4TU-5 | 2026-08-30 12:00:58 | 43.18876 | 20.37312 | 185° | 38km/h | 16890m | 1.5m/s | -58.0°C | 1.6% | 0hPa | 0V | 00:00:00 | 00:00:00 | 00:00:00 | |
| LZ4TU-5 | 2026-08-30 12:00:50 | 43.18872 | 20.37353 | 195° | 42km/h | 16821m | 12.9m/s | -57.8°C | 2.0% | 0hPa | 0V | 00:00:00 | 00:00:00 | 00:00:00 | |
| LZ4TU-5 | 2026-08-30 11:58:58 | 43.19120 | 20.35871 | 84° | 53km/h | 16162m | 5.7m/s | -58.4°C | 4.3% | 0hPa | 0V | 00:00:00 | 00:00:00 | 00:00:00 | |
| LZ4TU-5 | 2026-08-30 11:58:53 | 43.19107 | 20.35784 | 86° | 53km/h | 16137m | 5.3m/s | -58.4°C | 4.4% | 0hPa | 0V | 00:00:00 | 00:00:00 | 00:00:00 | |
| LZ4TU-5 | 2026-08-30 11:57:11 | 43.19310 | 20.34093 | 91° | 35km/h | 15595m | 6.2m/s | -63.2°C | 5.3% | 0hPa | 0V | 00:00:00 | 00:00:00 | 00:00:00 | |
| LZ4TU-5 | 2026-08-30 11:57:06 | 43.19309 | 20.34025 | 95° | 46km/h | 15567m | 4.9m/s | -63.2°C | 5.2% | 0hPa | 0V | 00:00:00 | 00:00:00 | 00:00:00 | |
| LZ4TU-5 | 2026-08-30 11:55:24 | 43.19637 | 20.33192 | 133° | 37km/h | 14908m | 6.9m/s | -59.8°C | 7.5% | 0hPa | 0V | 00:00:00 | 00:00:00 | 00:00:00 | |
| LZ4TU-5 | 2026-08-30 11:55:19 | 43.19669 | 20.33145 | 132° | 42km/h | 14870m | 8.5m/s | -59.5°C | 7.6% | 0hPa | 0V | 00:00:00 | 00:00:00 | 00:00:00 | |
| LZ4TU-5 | 2026-08-30 11:53:36 | 43.20018 | 20.31860 | 99° | 58km/h | 14269m | 5.5m/s | -58.0°C | 12.5% | 0hPa | 0V | 00:00:00 | 00:00:00 | 00:00:00 | |
| LZ4TU-5 | 2026-08-30 11:53:31 | 43.20034 | 20.31769 | 108° | 53km/h | 14244m | 4.8m/s | -58.2°C | 12.9% | 0hPa | 0V | 00:00:00 | 00:00:00 | 00:00:00 | |
| LZ4TU-5 | 2026-08-30 11:51:47 | 43.20427 | 20.29803 | 95° | 78km/h | 13736m | 4.9m/s | -59.8°C | 17.6% | 0hPa | 0V | 00:00:00 | 00:00:00 | 00:00:00 | |
| LZ4TU-5 | 2026-08-30 11:51:43 | 43.20438 | 20.29713 | 107° | 55km/h | 13714m | 6.1m/s | -59.7°C | 17.9% | 0hPa | 0V | 00:00:00 | 00:00:00 | 00:00:00 | |
| LZ4TU-5 | 2026-08-30 11:49:51 | 43.20680 | 20.27408 | 104° | 75km/h | 13117m | 6.3m/s | -58.6°C | 27.0% | 0hPa | 0V | 00:00:00 | 00:00:00 | 00:00:00 | |
| LZ4TU-5 | 2026-08-30 11:49:46 | 43.20689 | 20.27310 | 97° | 44km/h | 13086m | 8.0m/s | -58.7°C | 27.6% | 0hPa | 0V | 00:00:00 | 00:00:00 | 00:00:00 | |
| LZ4TU-5 | 2026-08-30 11:49:42 | 43.20701 | 20.27246 | 105° | 57km/h | 13061m | 6.4m/s | -58.7°C | 27.9% | 0hPa | 0V | 00:00:00 | 00:00:00 | 00:00:00 | |
| LZ4TU-5 | 2026-08-30 11:49:37 | 43.20712 | 20.27144 | 97° | 53km/h | 13030m | 4.7m/s | -59.0°C | 28.4% | 0hPa | 0V | 00:00:00 | 00:00:00 | 00:00:00 | |
| LZ4TU-5 | 2026-08-30 11:49:33 | 43.20721 | 20.27076 | 110° | 55km/h | 13004m | 7.1m/s | -58.9°C | 28.5% | 0hPa | 0V | 00:00:00 | 00:00:00 | 00:00:00 | |
| LZ4TU-5 | 2026-08-30 11:47:28 | 43.21297 | 20.24934 | 113° | 46km/h | 12270m | 5.1m/s | -56.4°C | 34.4% | 0hPa | 0V | 00:00:00 | 00:00:00 | 00:00:00 | |
| LZ4TU-5 | 2026-08-30 11:47:23 | 43.21314 | 20.24855 | 110° | 51km/h | 12243m | 7.1m/s | -56.2°C | 0% | 0hPa | 0V | 00:00:00 | 00:00:00 | 00:00:00 | |
| LZ4TU-5 | 2026-08-30 11:45:46 | 43.21772 | 20.23124 | 112° | 68km/h | 11667m | 4.4m/s | -52.1°C | 29.9% | 0hPa | 0V | 00:00:00 | 00:00:00 | 00:00:00 | |
| LZ4TU-5 | 2026-08-30 11:45:42 | 43.21792 | 20.23051 | 108° | 49km/h | 11647m | 4.8m/s | -52.0°C | 29.8% | 0hPa | 0V | 00:00:00 | 00:00:00 | 00:00:00 | |
| LZ4TU-5 | 2026-08-30 11:44:03 | 43.22212 | 20.21401 | 92° | 51km/h | 11088m | 4.3m/s | -48.0°C | 92.8% | 0hPa | 0V | 00:00:00 | 00:00:00 | 00:00:00 | |
| LZ4TU-5 | 2026-08-30 11:43:58 | 43.22228 | 20.21304 | 111° | 53km/h | 11062m | 4.6m/s | -48.0°C | 28.5% | 0hPa | 0V | 00:00:00 | 00:00:00 | 00:00:00 | |
| LZ4TU-5 | 2026-08-30 11:42:18 | 43.22447 | 20.19575 | 120° | 42km/h | 10500m | 3.8m/s | -43.4°C | 27.7% | 0hPa | 0V | 00:00:00 | 00:00:00 | 00:00:00 | |
| LZ4TU-5 | 2026-08-30 11:42:13 | 43.22448 | 20.19501 | 80° | 49km/h | 10472m | 5.3m/s | -43.2°C | 27.9% | 0hPa | 0V | 00:00:00 | 00:00:00 | 00:00:00 | |
| LZ4TU-5 | 2026-08-30 11:40:37 | 43.22627 | 20.18047 | 91° | 37km/h | 9944m | 6.4m/s | -39.3°C | 28.2% | 0hPa | 0V | 00:00:00 | 00:00:00 | 00:00:00 | |
| LZ4TU-5 | 2026-08-30 11:40:32 | 43.22614 | 20.17978 | 98° | 38km/h | 9919m | 4.6m/s | -39.1°C | 29.4% | 0hPa | 0V | 00:00:00 | 00:00:00 | 00:00:00 | |
| LZ4TU-5 | 2026-08-30 11:38:53 | 43.22680 | 20.16400 | 100° | 37km/h | 9407m | 4.2m/s | -34.9°C | 46.6% | 0hPa | 0V | 00:00:00 | 00:00:00 | 00:00:00 | |
| LZ4TU-5 | 2026-08-30 11:38:48 | 43.22685 | 20.16346 | 83° | 29km/h | 9381m | 4.0m/s | -34.7°C | 0% | 0hPa | 0V | 00:00:00 | 00:00:00 | 00:00:00 | |
| LZ4TU-5 | 2026-08-30 11:37:13 | 43.22734 | 20.14857 | 89° | 44km/h | 8868m | 4.0m/s | -29.9°C | 29.2% | 0hPa | 0V | 00:00:00 | 00:00:00 | 00:00:00 | |
| LZ4TU-5 | 2026-08-30 11:37:08 | 43.22756 | 20.14785 | 125° | 46km/h | 8843m | 2.5m/s | -29.7°C | 30.4% | 0hPa | 0V | 00:00:00 | 00:00:00 | 00:00:00 |